This is the latest recevied weather packets stored in our database for station/object M0XDC. If no packets are shown the sender has not sent any weather packets the latest 10 day(s).
| Time | Temp. | Humidity | Pressure | Rain* | Wind** | Luminosity | Snow |
|---|---|---|---|---|---|---|---|
| 1788136305 | 15.56° C | 86% | 1003.6 hPa | 0 mm | - | - | - |
| 1788134505 | 15.56° C | 85% | 1003.8 hPa | 0 mm | - | - | - |
| 1788132704 | 15.56° C | 83% | 1004.1 hPa | 0 mm | - | - | - |
| 1788130905 | 16.11° C | 83% | 1004.5 hPa | 0 mm | - | - | - |
| 1788129105 | 16.11° C | 82% | 1004.3 hPa | 0 mm | - | - | - |
| 1788127305 | 16.67° C | 86% | 1004.4 hPa | 0 mm | - | - | - |
| 1788125505 | 17.22° C | 83% | 1004.3 hPa | 0 mm | - | - | - |
| 1788123788 | 17.78° C | 76% | 1004.6 hPa | 0 mm | - | - | - |
| 1788123705 | 17.78° C | 76% | 1004.6 hPa | 0 mm | - | - | - |
| 1788121905 | 17.78° C | 75% | 1004.9 hPa | 0 mm | - | - | - |
| 1788120105 | 17.78° C | 73% | 1005.2 hPa | 0 mm | - | - | - |
| 1788118305 | 18.33° C | 71% | 1005.1 hPa | 0 mm | - | - | - |
| 1788116505 | 18.89° C | 68% | 1005.2 hPa | 0 mm | - | - | - |
| 1788114705 | 19.44° C | 67% | 1005.1 hPa | 0 mm | - | - | - |
| 1788112905 | 20° C | 65% | 1005.3 hPa | 0 mm | - | - | - |
| 1788111156 | 20.56° C | 61% | 1005.4 hPa | 0 mm | - | - | - |
| 1788111105 | 20.56° C | 61% | 1005.4 hPa | 0 mm | - | - | - |
| 1788109305 | 21.11° C | 58% | 1005.5 hPa | 0 mm | - | - | - |
| 1788107505 | 21.67° C | 58% | 1005.8 hPa | 0 mm | - | - | - |
| 1788105705 | 21.67° C | 58% | 1005.8 hPa | 0 mm | - | - | - |
| 1788103905 | 21.67° C | 61% | 1006.3 hPa | 0 mm | - | - | - |
| 1788102105 | 22.22° C | 57% | 1006.1 hPa | 0 mm | - | - | - |
| 1788100305 | 22.22° C | 60% | 1006.3 hPa | 0 mm | - | - | - |
| 1788098505 | 20° C | 68% | 1006.7 hPa | 0 mm | - | - | - |
| 1788096705 | 22.22° C | 57% | 1006.9 hPa | 0 mm | - | - | - |
* Rain latest hour (hover to see other rain measurements)
** Current wind speed in m/s (hover to see current wind gust speed)